createdAt,value
2018-03-07T00:01:36.392Z,7.88
2018-03-07T00:04:05.397Z,8.12
2018-03-07T00:06:34.474Z,7.64
2018-03-07T00:09:04.074Z,7.60
2018-03-07T00:11:33.348Z,7.58
2018-03-07T00:14:02.439Z,7.76
2018-03-07T00:16:31.629Z,7.87
2018-03-07T00:19:00.790Z,7.73
2018-03-07T00:21:30.533Z,7.55
2018-03-07T00:24:00.385Z,7.25
2018-03-07T00:26:30.066Z,7.25
2018-03-07T00:29:00.411Z,7.37
2018-03-07T00:31:29.608Z,7.43
2018-03-07T00:33:58.112Z,7.67
2018-03-07T00:36:27.287Z,7.76
2018-03-07T00:38:55.944Z,7.85
2018-03-07T00:41:24.767Z,8.35
2018-03-07T00:43:55.666Z,7.95
2018-03-07T00:46:24.373Z,7.95
2018-03-07T00:48:53.167Z,8.20
2018-03-07T00:51:23.502Z,8.10
2018-03-07T00:53:51.886Z,8.27
2018-03-07T00:56:21.695Z,7.99
2018-03-07T00:58:50.124Z,7.61
2018-03-07T01:01:18.960Z,7.74
2018-03-07T01:03:48.660Z,7.90
2018-03-07T01:06:17.448Z,8.12
2018-03-07T01:08:45.825Z,6.83
2018-03-07T01:11:14.627Z,7.69
2018-03-07T01:13:43.031Z,7.83
2018-03-07T01:16:13.011Z,7.40
2018-03-07T01:18:43.071Z,7.79
2018-03-07T01:21:12.569Z,8.19
2018-03-07T01:23:41.682Z,8.33
2018-03-07T01:26:10.434Z,8.05
2018-03-07T01:28:38.884Z,8.12
2018-03-07T01:31:07.368Z,7.81
2018-03-07T01:33:36.178Z,7.84
2018-03-07T01:36:05.225Z,7.77
2018-03-07T01:38:34.623Z,7.99
2018-03-07T01:41:02.993Z,7.95
2018-03-07T01:43:37.473Z,7.59
2018-03-07T01:46:06.573Z,7.69
2018-03-07T01:48:37.459Z,7.90
2018-03-07T01:51:07.269Z,7.75
2018-03-07T01:53:36.360Z,7.79
2018-03-07T01:56:04.881Z,8.02
2018-03-07T01:58:33.748Z,7.92
2018-03-07T02:01:02.224Z,8.24
2018-03-07T02:03:30.600Z,8.25
2018-03-07T02:05:59.016Z,8.29
2018-03-07T02:08:28.100Z,8.22
2018-03-07T02:10:57.572Z,8.10
2018-03-07T02:13:26.720Z,7.97
2018-03-07T02:15:55.532Z,7.78
2018-03-07T02:18:24.611Z,7.33
2018-03-07T02:20:53.361Z,7.74
2018-03-07T02:23:23.755Z,7.53
2018-03-07T02:25:53.674Z,7.86
2018-03-07T02:28:22.870Z,7.79
2018-03-07T02:30:51.646Z,7.53
2018-03-07T02:33:23.757Z,7.45
2018-03-07T02:35:52.421Z,7.63
2018-03-07T02:38:20.949Z,7.87
2018-03-07T02:40:51.054Z,8.09
2018-03-07T02:43:19.995Z,7.95
2018-03-07T02:45:50.036Z,7.83
2018-03-07T02:48:19.179Z,7.75
2018-03-07T02:50:47.538Z,8.10
2018-03-07T02:53:16.423Z,8.30
2018-03-07T02:55:45.898Z,8.41
2018-03-07T02:58:16.454Z,8.33
2018-03-07T03:00:45.697Z,8.41
2018-03-07T03:03:14.089Z,8.51
2018-03-07T03:05:43.536Z,8.52
2018-03-07T03:08:12.388Z,8.46
2018-03-07T03:10:42.600Z,8.41
2018-03-07T03:13:12.224Z,8.39
2018-03-07T03:15:40.814Z,8.44
2018-03-07T03:18:09.370Z,8.24
2018-03-07T03:20:39.547Z,8.39
2018-03-07T03:23:07.938Z,8.38
2018-03-07T03:25:36.985Z,8.19
2018-03-07T03:28:06.016Z,8.17
2018-03-07T03:30:34.521Z,8.17
2018-03-07T03:33:04.309Z,8.40
2018-03-07T03:35:32.802Z,8.41
2018-03-07T03:38:02.913Z,8.29
2018-03-07T03:40:32.324Z,8.17
2018-03-07T03:43:01.787Z,8.33
2018-03-07T03:45:30.677Z,8.41
2018-03-07T03:47:59.929Z,8.29
2018-03-07T03:50:28.729Z,7.97
2018-03-07T03:52:58.810Z,7.93
2018-03-07T03:55:28.384Z,7.99
2018-03-07T03:57:58.635Z,7.70
2018-03-07T04:00:27.524Z,7.93
2018-03-07T04:02:56.588Z,8.06
2018-03-07T04:05:25.848Z,8.15
2018-03-07T04:07:55.300Z,8.18
2018-03-07T04:10:23.960Z,8.27
2018-03-07T04:12:52.379Z,8.28
2018-03-07T04:15:23.469Z,8.33
2018-03-07T04:17:52.913Z,8.01
2018-03-07T04:20:21.880Z,7.54
2018-03-07T04:22:51.063Z,7.71
2018-03-07T04:25:19.843Z,7.23
2018-03-07T04:27:48.658Z,7.80
2018-03-07T04:30:19.673Z,8.02
2018-03-07T04:32:48.407Z,8.18
2018-03-07T04:35:18.272Z,8.21
2018-03-07T04:37:48.290Z,8.18
2018-03-07T04:40:17.080Z,8.01
2018-03-07T04:42:46.209Z,8.20
2018-03-07T04:45:15.420Z,8.18
2018-03-07T04:47:45.589Z,8.14
2018-03-07T04:50:15.884Z,8.20
2018-03-07T04:52:44.586Z,8.25
2018-03-07T04:55:13.405Z,8.24
2018-03-07T04:57:42.180Z,8.30
2018-03-07T05:00:10.542Z,8.26
2018-03-07T05:02:38.972Z,8.02
2018-03-07T05:05:07.300Z,8.32
2018-03-07T05:07:37.320Z,8.36
2018-03-07T05:10:06.097Z,8.06
2018-03-07T05:12:34.930Z,8.19
2018-03-07T05:15:03.662Z,8.34
2018-03-07T05:17:32.161Z,8.43
2018-03-07T05:20:01.316Z,8.36
2018-03-07T05:22:30.696Z,8.39
2018-03-07T05:25:02.482Z,8.51
2018-03-07T05:27:31.766Z,8.55
2018-03-07T05:30:00.576Z,8.48
2018-03-07T05:32:30.850Z,8.56
2018-03-07T05:34:59.815Z,8.52
2018-03-07T05:37:28.431Z,8.49
2018-03-07T05:39:58.078Z,8.53
2018-03-07T05:42:26.545Z,8.69
2018-03-07T05:44:55.651Z,8.71
2018-03-07T05:47:24.878Z,8.60
2018-03-07T05:49:53.331Z,8.72
2018-03-07T05:52:23.660Z,8.78
2018-03-07T05:54:52.837Z,8.83
2018-03-07T05:57:23.057Z,8.89
2018-03-07T05:59:52.583Z,8.93
2018-03-07T06:02:23.049Z,8.94
2018-03-07T06:04:52.734Z,8.88
2018-03-07T06:07:23.057Z,8.91
2018-03-07T06:09:52.047Z,8.98
2018-03-07T06:12:20.674Z,9.06
2018-03-07T06:14:49.185Z,9.09
2018-03-07T06:17:18.542Z,9.16
2018-03-07T06:19:48.405Z,9.07
2018-03-07T06:22:17.435Z,9.13
2018-03-07T06:24:46.049Z,9.19
2018-03-07T06:27:14.973Z,9.27
2018-03-07T06:29:43.402Z,9.27
2018-03-07T06:32:12.412Z,9.18
2018-03-07T06:34:42.310Z,9.27
2018-03-07T06:37:11.034Z,9.37
2018-03-07T06:39:40.295Z,9.34
2018-03-07T06:42:09.139Z,9.45
2018-03-07T06:44:38.558Z,9.42
2018-03-07T06:47:08.375Z,9.19
2018-03-07T06:49:38.686Z,9.36
2018-03-07T06:52:08.407Z,9.33
2018-03-07T06:54:38.188Z,9.27
2018-03-07T06:57:07.226Z,9.44
2018-03-07T06:59:36.706Z,9.59
2018-03-07T07:02:05.882Z,9.67
2018-03-07T07:04:34.900Z,9.61
2018-03-07T07:07:03.952Z,9.46
2018-03-07T07:09:32.353Z,9.49
2018-03-07T07:12:03.950Z,9.43
2018-03-07T07:14:33.614Z,9.62
2018-03-07T07:17:02.687Z,9.64
2018-03-07T07:19:32.691Z,9.70
2018-03-07T07:22:01.193Z,9.59
2018-03-07T07:24:29.932Z,9.63
2018-03-07T07:26:59.637Z,9.75
2018-03-07T07:29:28.987Z,9.64
2018-03-07T07:31:58.774Z,9.75
2018-03-07T07:34:27.814Z,9.77
2018-03-07T07:36:56.673Z,9.77
2018-03-07T07:39:26.541Z,9.80
2018-03-07T07:41:55.326Z,9.80
2018-03-07T07:44:24.375Z,9.83
2018-03-07T07:46:53.190Z,9.91
2018-03-07T07:49:22.087Z,9.86
2018-03-07T07:51:51.489Z,10.04
2018-03-07T07:54:20.325Z,9.97
2018-03-07T07:56:50.256Z,9.98
2018-03-07T07:59:19.619Z,9.96
2018-03-07T08:01:49.801Z,9.88
2018-03-07T08:04:18.714Z,9.94
2018-03-07T08:06:48.972Z,10.06
2018-03-07T08:09:17.935Z,10.18
2018-03-07T08:11:47.088Z,10.16
2018-03-07T08:14:16.763Z,10.19
2018-03-07T08:16:45.396Z,10.31
2018-03-07T08:19:13.776Z,10.28
2018-03-07T08:21:42.166Z,10.33
2018-03-07T08:24:14.673Z,10.34
2018-03-07T08:26:43.223Z,10.38
2018-03-07T08:29:12.022Z,10.41
2018-03-07T08:31:42.657Z,10.45
2018-03-07T08:34:12.992Z,10.53
2018-03-07T08:36:41.513Z,10.66
2018-03-07T08:41:46.652Z,10.42
2018-03-07T08:44:15.819Z,10.25
2018-03-07T08:46:46.087Z,10.51
2018-03-07T08:49:14.805Z,10.24
2018-03-07T08:51:44.649Z,10.23
2018-03-07T08:54:14.554Z,10.15
2018-03-07T08:56:43.503Z,10.19
2018-03-07T08:59:12.036Z,10.33
2018-03-07T09:01:40.878Z,10.22
2018-03-07T09:04:09.441Z,9.88
2018-03-07T09:06:38.336Z,9.94
2018-03-07T09:09:06.763Z,9.90
2018-03-07T09:11:35.600Z,10.03
2018-03-07T09:14:04.044Z,9.65
2018-03-07T09:16:32.880Z,9.80
2018-03-07T09:19:01.328Z,9.96
2018-03-07T09:21:29.788Z,9.89
2018-03-07T09:23:58.235Z,10.12
2018-03-07T09:26:26.731Z,10.15
2018-03-07T09:28:55.213Z,10.14
2018-03-07T09:31:23.668Z,10.29
2018-03-07T09:33:52.192Z,10.38
2018-03-07T09:36:21.040Z,10.49
2018-03-07T09:38:49.471Z,10.37
2018-03-07T09:41:18.315Z,10.26
2018-03-07T09:43:46.753Z,10.17
2018-03-07T09:46:15.204Z,10.14
2018-03-07T09:48:43.640Z,10.43
2018-03-07T09:51:12.091Z,10.45
2018-03-07T09:53:40.525Z,10.29
2018-03-07T09:56:09.022Z,10.30
2018-03-07T09:58:37.436Z,10.52
2018-03-07T10:01:05.978Z,10.23
2018-03-07T10:03:36.165Z,10.08
2018-03-07T10:06:04.640Z,9.98
2018-03-07T10:08:34.229Z,10.37
2018-03-07T10:11:03.124Z,10.45
2018-03-07T10:13:31.596Z,10.46
2018-03-07T10:16:00.107Z,10.37
2018-03-07T10:18:28.558Z,10.64
2018-03-07T10:20:57.039Z,10.49
2018-03-07T10:23:25.497Z,10.44
2018-03-07T10:25:53.972Z,10.43
2018-03-07T10:28:22.428Z,10.50
2018-03-07T10:30:50.880Z,10.34
2018-03-07T10:33:24.828Z,10.44
2018-03-07T10:35:53.280Z,10.20
2018-03-07T10:38:21.726Z,10.21
2018-03-07T10:40:50.170Z,10.24
2018-03-07T10:43:18.609Z,10.18
2018-03-07T10:45:47.060Z,10.14
2018-03-07T10:48:15.488Z,9.96
2018-03-07T10:50:43.957Z,10.13
2018-03-07T10:53:12.387Z,10.25
2018-03-07T10:55:41.132Z,10.03
2018-03-07T10:58:09.880Z,10.32
2018-03-07T11:00:39.116Z,10.40
2018-03-07T11:03:07.564Z,9.98
2018-03-07T11:05:36.411Z,10.30
2018-03-07T11:08:04.894Z,10.16
2018-03-07T11:10:33.398Z,10.13
2018-03-07T11:13:01.833Z,10.28
2018-03-07T11:15:30.288Z,10.39
2018-03-07T11:17:58.720Z,10.33
2018-03-07T11:20:27.163Z,10.19
2018-03-07T11:22:55.619Z,10.27
2018-03-07T11:25:24.644Z,10.04
2018-03-07T11:27:53.074Z,10.26
2018-03-07T11:30:22.015Z,10.22
2018-03-07T11:32:50.463Z,10.14
2018-03-07T11:35:19.353Z,10.40
2018-03-07T11:37:48.189Z,10.43
2018-03-07T11:40:16.636Z,10.36
2018-03-07T11:42:45.090Z,10.24
2018-03-07T11:45:13.560Z,10.04
2018-03-07T11:47:41.997Z,10.46
2018-03-07T11:50:10.513Z,10.45
2018-03-07T11:52:38.960Z,10.25
2018-03-07T11:55:07.419Z,10.14
2018-03-07T11:57:35.887Z,10.29
2018-03-07T12:00:04.736Z,10.36
2018-03-07T12:02:33.201Z,10.65
2018-03-07T12:05:01.648Z,10.53
2018-03-07T12:07:30.092Z,10.72
2018-03-07T12:09:58.966Z,10.47
2018-03-07T12:12:27.400Z,10.35
2018-03-07T12:14:55.840Z,10.46
2018-03-07T12:17:24.276Z,10.40
2018-03-07T12:19:52.732Z,10.28
2018-03-07T12:22:21.265Z,10.34
2018-03-07T12:24:49.723Z,10.60
2018-03-07T12:27:18.173Z,10.27
2018-03-07T12:29:47.101Z,10.29
2018-03-07T12:32:15.661Z,10.14
2018-03-07T12:34:44.104Z,10.23
2018-03-07T12:37:12.558Z,10.06
2018-03-07T12:39:41.007Z,9.92
2018-03-07T12:42:09.469Z,9.80
2018-03-07T12:44:38.311Z,9.72
2018-03-07T12:47:06.763Z,9.49
2018-03-07T12:49:35.299Z,9.67
2018-03-07T12:52:03.748Z,9.29
2018-03-07T12:54:32.275Z,9.55
2018-03-07T12:57:01.118Z,9.34
2018-03-07T12:59:29.564Z,9.44
2018-03-07T13:01:58.014Z,9.42
2018-03-07T13:04:26.560Z,9.43
2018-03-07T13:06:55.044Z,9.33
2018-03-07T13:09:23.489Z,9.35
2018-03-07T13:11:52.337Z,9.09
2018-03-07T13:14:20.780Z,9.20
2018-03-07T13:16:49.233Z,9.38
2018-03-07T13:19:18.052Z,9.52
2018-03-07T13:21:46.530Z,9.74
2018-03-07T13:24:14.964Z,9.66
2018-03-07T13:26:43.409Z,9.70
2018-03-07T13:29:11.853Z,9.82
2018-03-07T13:31:40.308Z,9.84
2018-03-07T13:34:08.782Z,9.81
2018-03-07T13:36:37.225Z,9.81
2018-03-07T13:39:05.675Z,9.71
2018-03-07T13:41:34.112Z,9.47
2018-03-07T13:44:02.871Z,9.37
2018-03-07T13:46:31.354Z,9.31
2018-03-07T13:48:59.820Z,9.48
2018-03-07T13:51:28.274Z,9.31
2018-03-07T13:53:57.097Z,9.53
2018-03-07T13:56:25.656Z,9.67
2018-03-07T13:58:54.049Z,9.64
2018-03-07T14:01:22.495Z,9.90
2018-03-07T14:03:51.327Z,9.91
2018-03-07T14:06:19.780Z,10.01
2018-03-07T14:08:48.615Z,10.27
2018-03-07T14:11:17.084Z,10.38
2018-03-07T14:13:45.517Z,10.50
2018-03-07T14:16:13.959Z,10.32
2018-03-07T14:18:42.417Z,10.27
2018-03-07T14:21:10.860Z,10.13
2018-03-07T14:23:39.688Z,9.72
2018-03-07T14:26:08.136Z,9.28
2018-03-07T14:28:36.992Z,9.35
2018-03-07T14:31:05.502Z,9.58
2018-03-07T14:33:34.334Z,9.73
2018-03-07T14:36:02.827Z,9.43
2018-03-07T14:38:31.260Z,9.60
2018-03-07T14:41:00.115Z,9.55
2018-03-07T14:43:28.561Z,9.47
2018-03-07T14:45:57.018Z,9.48
2018-03-07T14:48:25.449Z,9.65
2018-03-07T14:50:53.892Z,9.63
2018-03-07T14:53:22.321Z,9.20
2018-03-07T14:55:50.810Z,9.37
2018-03-07T14:58:19.237Z,9.44
2018-03-07T15:00:47.676Z,9.32
2018-03-07T15:03:16.113Z,9.17
2018-03-07T15:05:44.572Z,9.40
2018-03-07T15:08:13.022Z,9.19
2018-03-07T15:10:41.460Z,8.98
2018-03-07T15:13:09.902Z,9.14
2018-03-07T15:15:38.731Z,9.12
2018-03-07T15:18:07.188Z,8.93
2018-03-07T15:20:35.633Z,8.89
2018-03-07T15:23:04.469Z,9.24
2018-03-07T15:25:32.914Z,9.18
2018-03-07T15:28:01.796Z,9.14
2018-03-07T15:30:30.256Z,9.13
2018-03-07T15:32:58.714Z,9.15
2018-03-07T15:35:27.488Z,9.12
2018-03-07T15:37:55.924Z,9.32
2018-03-07T15:40:24.375Z,9.19
2018-03-07T15:42:52.811Z,9.28
2018-03-07T15:45:21.263Z,9.03
2018-03-07T15:47:49.702Z,9.45
2018-03-07T15:50:18.161Z,9.25
2018-03-07T15:52:46.589Z,9.29
2018-03-07T15:55:15.041Z,9.20
2018-03-07T15:57:43.500Z,9.33
2018-03-07T16:00:11.943Z,9.22
2018-03-07T16:02:40.377Z,9.34
2018-03-07T16:05:08.848Z,9.50
2018-03-07T16:07:37.305Z,9.67
2018-03-07T16:10:06.149Z,9.54
2018-03-07T16:12:34.601Z,9.19
2018-03-07T16:15:03.051Z,9.33
2018-03-07T16:17:32.002Z,9.07
2018-03-07T16:20:00.442Z,8.84
2018-03-07T16:22:28.888Z,8.85
2018-03-07T16:24:57.329Z,9.11
2018-03-07T16:27:25.764Z,9.37
2018-03-07T16:29:54.592Z,9.52
2018-03-07T16:32:23.041Z,9.48
2018-03-07T16:34:51.878Z,9.08
2018-03-07T16:37:20.319Z,9.28
2018-03-07T16:39:48.755Z,9.32
2018-03-07T16:42:17.220Z,9.42
2018-03-07T16:44:45.678Z,9.43
2018-03-07T16:47:14.128Z,9.40
2018-03-07T16:49:43.076Z,9.54
2018-03-07T16:52:13.227Z,9.44
2018-03-07T16:54:42.056Z,9.17
2018-03-07T16:57:10.527Z,9.30
2018-03-07T16:59:38.970Z,9.43
2018-03-07T17:02:07.436Z,9.19
2018-03-07T17:04:35.892Z,9.22
2018-03-07T17:07:04.340Z,9.22
2018-03-07T17:09:33.173Z,9.21
2018-03-07T17:12:01.620Z,9.22
2018-03-07T17:14:30.061Z,9.27
2018-03-07T17:16:58.503Z,9.14
2018-03-07T17:19:26.951Z,9.24
2018-03-07T17:21:55.820Z,9.18
2018-03-07T17:24:24.264Z,9.17
2018-03-07T17:26:52.728Z,9.20
2018-03-07T17:29:21.164Z,9.13
2018-03-07T17:31:50.312Z,9.10
2018-03-07T17:34:19.035Z,8.35
2018-03-07T17:36:47.764Z,8.61
2018-03-07T17:39:16.431Z,8.58
2018-03-07T17:41:45.208Z,8.74
2018-03-07T17:44:13.701Z,8.95
2018-03-07T17:46:42.632Z,9.12
2018-03-07T17:49:11.071Z,9.16
2018-03-07T17:51:39.912Z,9.22
2018-03-07T17:54:08.357Z,9.29
2018-03-07T17:56:36.803Z,9.35
2018-03-07T17:59:05.244Z,9.43
2018-03-07T18:01:33.691Z,9.21
2018-03-07T18:04:02.539Z,9.09
2018-03-07T18:06:30.979Z,9.19
2018-03-07T18:08:59.420Z,9.33
2018-03-07T18:11:27.865Z,9.25
2018-03-07T18:13:56.323Z,9.52
2018-03-07T18:16:24.781Z,9.51
2018-03-07T18:18:53.625Z,9.36
2018-03-07T18:21:22.077Z,9.20
2018-03-07T18:23:50.524Z,9.08
2018-03-07T18:26:19.363Z,9.35
2018-03-07T18:28:47.797Z,9.35
2018-03-07T18:31:16.632Z,9.45
2018-03-07T18:33:45.081Z,9.37
2018-03-07T18:36:13.708Z,9.40
2018-03-07T18:38:42.175Z,9.33
2018-03-07T18:41:10.619Z,9.52
2018-03-07T18:43:39.485Z,9.63
2018-03-07T18:46:07.931Z,9.50
2018-03-07T18:48:36.387Z,9.53
2018-03-07T18:51:04.821Z,9.49
2018-03-07T18:53:33.294Z,9.60
2018-03-07T18:56:01.751Z,9.52
2018-03-07T18:58:30.245Z,9.51
2018-03-07T19:00:59.484Z,9.73
2018-03-07T19:03:28.316Z,9.60
2018-03-07T19:05:56.752Z,9.45
2018-03-07T19:08:25.595Z,9.43
2018-03-07T19:10:54.729Z,9.56
2018-03-07T19:13:23.177Z,9.43
2018-03-07T19:15:55.510Z,9.60
2018-03-07T19:18:23.964Z,9.37
2018-03-07T19:20:52.808Z,9.15
2018-03-07T19:23:21.240Z,8.98
2018-03-07T19:25:49.712Z,9.13
2018-03-07T19:28:18.192Z,9.34
2018-03-07T19:30:47.048Z,9.23
2018-03-07T19:33:15.479Z,9.13
2018-03-07T19:35:44.331Z,9.13
2018-03-07T19:38:12.821Z,8.92
2018-03-07T19:40:41.244Z,9.03
2018-03-07T19:43:10.056Z,8.97
2018-03-07T19:45:38.708Z,8.61
2018-03-07T19:48:07.660Z,8.52
2018-03-07T19:50:36.129Z,8.89
2018-03-07T19:53:04.568Z,8.72
2018-03-07T19:55:33.012Z,8.76
2018-03-07T19:58:01.619Z,8.89
2018-03-07T20:00:30.465Z,8.84
2018-03-07T20:02:58.915Z,8.91
2018-03-07T20:05:27.372Z,9.14
2018-03-07T20:07:56.198Z,8.94
2018-03-07T20:10:24.641Z,8.98
2018-03-07T20:12:53.489Z,8.75
2018-03-07T20:15:21.927Z,8.86
2018-03-07T20:17:50.360Z,8.84
2018-03-07T20:20:18.811Z,8.52
2018-03-07T20:22:47.247Z,8.74
2018-03-07T20:25:16.087Z,8.73
2018-03-07T20:27:46.508Z,8.81
2018-03-07T20:30:14.961Z,8.74
2018-03-07T20:32:43.401Z,8.83
2018-03-07T20:35:11.871Z,9.15
2018-03-07T20:37:40.312Z,9.22
2018-03-07T20:40:08.777Z,9.24
2018-03-07T20:42:37.624Z,9.45
2018-03-07T20:45:06.085Z,9.20
2018-03-07T20:47:34.982Z,9.15
2018-03-07T20:50:03.452Z,9.16
2018-03-07T20:52:31.904Z,9.13
2018-03-07T20:55:00.754Z,9.18
2018-03-07T20:57:29.211Z,9.25
2018-03-07T20:59:57.689Z,9.35
2018-03-07T21:02:26.137Z,9.33
2018-03-07T21:04:55.077Z,9.30
2018-03-07T21:07:23.544Z,9.20
2018-03-07T21:09:52.021Z,9.05
2018-03-07T21:12:21.087Z,9.17
2018-03-07T21:14:50.236Z,9.32
2018-03-07T21:17:18.768Z,9.29
2018-03-07T21:19:47.213Z,9.33
2018-03-07T21:22:15.656Z,9.17
2018-03-07T21:24:44.092Z,9.17
2018-03-07T21:27:12.948Z,9.30
2018-03-07T21:29:41.412Z,9.12
2018-03-07T21:32:09.869Z,9.24
2018-03-07T21:34:38.398Z,9.41
2018-03-07T21:37:06.834Z,9.35
2018-03-07T21:39:35.268Z,9.17
2018-03-07T21:42:03.733Z,9.08
2018-03-07T21:44:32.176Z,9.39
2018-03-07T21:47:00.616Z,9.26
2018-03-07T21:49:29.211Z,9.20
2018-03-07T21:51:58.042Z,9.37
2018-03-07T21:54:26.471Z,9.26
2018-03-07T21:56:55.309Z,9.51
2018-03-07T21:59:23.752Z,9.31
2018-03-07T22:01:53.301Z,9.27
2018-03-07T22:04:21.733Z,9.08
2018-03-07T22:06:50.644Z,9.19
2018-03-07T22:09:19.088Z,9.28
2018-03-07T22:11:47.579Z,9.35
2018-03-07T22:14:16.026Z,9.43
2018-03-07T22:16:44.520Z,9.36
2018-03-07T22:19:12.960Z,9.54
2018-03-07T22:21:41.410Z,9.50
2018-03-07T22:24:09.876Z,9.61
2018-03-07T22:26:38.515Z,9.77
2018-03-07T22:29:06.971Z,9.67
2018-03-07T22:31:35.408Z,9.43
2018-03-07T22:34:03.851Z,9.60
2018-03-07T22:36:32.292Z,9.71
2018-03-07T22:39:00.747Z,9.66
2018-03-07T22:41:29.203Z,9.71
2018-03-07T22:43:57.651Z,9.75
2018-03-07T22:46:26.104Z,9.80
2018-03-07T22:48:54.564Z,9.73
2018-03-07T22:51:23.000Z,9.84
2018-03-07T22:53:51.435Z,9.88
2018-03-07T22:56:19.880Z,9.61
2018-03-07T22:58:48.346Z,9.62
2018-03-07T23:01:16.785Z,9.71
2018-03-07T23:03:45.216Z,9.88
2018-03-07T23:06:13.684Z,9.62
2018-03-07T23:08:42.115Z,9.82
2018-03-07T23:11:10.555Z,9.81
2018-03-07T23:13:38.992Z,9.76
2018-03-07T23:16:07.442Z,9.76
2018-03-07T23:18:35.882Z,9.83
2018-03-07T23:21:04.324Z,9.87
2018-03-07T23:23:32.756Z,9.84
2018-03-07T23:26:01.200Z,9.65
2018-03-07T23:28:30.037Z,9.74
2018-03-07T23:30:58.543Z,9.27
2018-03-07T23:33:26.994Z,9.31
2018-03-07T23:35:55.448Z,9.16
2018-03-07T23:38:24.292Z,9.55
2018-03-07T23:40:52.745Z,9.63
2018-03-07T23:43:21.217Z,9.13
2018-03-07T23:45:49.934Z,9.25
2018-03-07T23:48:18.407Z,9.05
2018-03-07T23:50:46.863Z,9.18
2018-03-07T23:53:15.320Z,9.31
2018-03-07T23:55:44.179Z,9.28
2018-03-07T23:58:12.619Z,9.13
